Time;durP1;ratioP1;P1;durP2;ratioP2;P2;SDS_P1;SDS_P2;PMS_P1;PMS_P2;Temp;Humidity;BMP_temperature;BMP_pressure;BME280_temperature;BME280_humidity;BME280_pressure;Samples;Min_cycle;Max_cycle;Signal;HPM_P1;HPM_P2
2024/02/21 00:02:14;;;;;;;39.40;5.80;;;;;;;5.45;100.00;101381.81;104446;1310;24184;-59
2024/02/21 00:04:43;;;;;;;35.20;6.00;;;;;;;5.41;100.00;101382.09;104227;1308;22562;-59
2024/02/21 00:07:09;;;;;;;25.90;5.50;;;;;;;5.39;100.00;101381.54;104199;1305;24272;-59
2024/02/21 00:09:34;;;;;;;27.80;5.50;;;;;;;5.35;99.99;101381.30;104155;1310;22550;-58
2024/02/21 00:12:01;;;;;;;33.90;6.00;;;;;;;5.31;100.00;101383.63;104425;1310;25374;-59
2024/02/21 00:14:26;;;;;;;33.50;5.80;;;;;;;5.27;100.00;101382.87;104253;1301;22655;-59
2024/02/21 00:16:52;;;;;;;27.00;6.00;;;;;;;5.25;99.99;101381.30;104376;1290;25668;-58
2024/02/21 00:19:20;;;;;;;25.90;7.00;;;;;;;5.23;100.00;101377.49;104578;1311;22823;-57
2024/02/21 00:21:46;;;;;;;29.50;6.40;;;;;;;5.21;100.00;101374.73;104284;1310;25453;-57
2024/02/21 00:24:14;;;;;;;26.90;6.40;;;;;;;5.21;100.00;101375.08;104207;1310;22566;-58
2024/02/21 00:26:39;;;;;;;29.60;6.50;;;;;;;5.20;100.00;101374.55;104160;1304;25342;-55
2024/02/21 00:29:05;;;;;;;22.30;5.40;;;;;;;5.16;100.00;101374.67;104451;1302;22646;-59
2024/02/21 00:31:31;;;;;;;27.30;6.20;;;;;;;5.10;99.90;101371.82;104408;1304;24049;-60
2024/02/21 00:33:56;;;;;;;31.00;6.00;;;;;;;5.06;100.00;101371.05;104046;1310;22960;-58
2024/02/21 00:36:22;;;;;;;27.30;5.80;;;;;;;5.00;99.91;101365.49;104328;1305;24578;-57
2024/02/21 00:38:47;;;;;;;24.80;5.80;;;;;;;4.95;99.95;101361.63;104327;1302;23506;-59
2024/02/21 00:41:12;;;;;;;29.10;5.50;;;;;;;4.89;100.00;101356.06;104454;1305;22591;-61
2024/02/21 00:43:38;;;;;;;28.90;6.90;;;;;;;4.85;100.00;101355.11;104416;1310;22611;-57
2024/02/21 00:46:06;;;;;;;24.00;5.20;;;;;;;4.80;100.00;101351.60;104521;1305;22573;-58
2024/02/21 00:48:31;;;;;;;33.20;7.90;;;;;;;4.72;100.00;101348.38;107186;1292;22445;-60
2024/02/21 00:50:58;;;;;;;22.90;5.60;;;;;;;4.70;100.00;101344.91;107177;1310;22282;-59
2024/02/21 00:53:27;;;;;;;32.10;6.50;;;;;;;4.68;100.00;101340.78;106831;1304;22560;-59
2024/02/21 00:55:56;;;;;;;29.40;7.00;;;;;;;4.66;99.87;101344.19;104157;1305;22556;-59
2024/02/21 00:58:23;;;;;;;31.80;8.40;;;;;;;4.63;99.95;101337.96;104559;1291;22611;-57
2024/02/21 01:00:49;;;;;;;36.80;7.60;;;;;;;4.64;100.00;101338.17;104652;1310;22816;-58
2024/02/21 01:03:14;;;;;;;36.10;8.20;;;;;;;4.63;100.00;101333.72;104046;1305;26089;-58
2024/02/21 01:05:39;;;;;;;30.70;8.50;;;;;;;4.58;100.00;101332.41;103976;1310;22568;-59
2024/02/21 01:08:05;;;;;;;33.70;9.20;;;;;;;4.55;100.00;101326.89;104200;1293;22694;-59
2024/02/21 01:10:31;;;;;;;39.40;9.20;;;;;;;4.55;100.00;101322.45;105148;1301;25402;-59
2024/02/21 01:12:56;;;;;;;33.50;8.70;;;;;;;4.54;100.00;101317.14;104366;1310;22556;-60
2024/02/21 01:15:22;;;;;;;33.00;8.80;;;;;;;4.52;100.00;101316.77;104334;1310;22573;-60
2024/02/21 01:17:47;;;;;;;30.80;8.00;;;;;;;4.54;100.00;101313.38;104020;1301;22559;-58
2024/02/21 01:20:13;;;;;;;27.20;7.40;;;;;;;4.55;100.00;101314.09;104248;1294;22887;-60
2024/02/21 01:22:38;;;;;;;33.40;8.60;;;;;;;4.58;100.00;101308.69;104128;1305;22980;-64
2024/02/21 01:25:05;;;;;;;33.80;7.40;;;;;;;4.59;100.00;101305.97;104073;1310;22708;-60
2024/02/21 01:27:31;;;;;;;32.80;7.50;;;;;;;4.63;100.00;101303.48;106124;1307;22602;-57
2024/02/21 01:29:56;;;;;;;28.10;6.60;;;;;;;4.65;100.00;101303.52;104062;1291;24399;-58
2024/02/21 01:32:24;;;;;;;32.30;6.70;;;;;;;4.68;100.00;101298.77;104329;1310;23799;-59
2024/02/21 01:34:50;;;;;;;33.80;7.00;;;;;;;4.72;100.00;101298.84;104282;1308;22547;-60
2024/02/21 01:37:19;;;;;;;23.90;6.90;;;;;;;4.77;100.00;101302.18;104313;1304;23161;-60
2024/02/21 01:39:44;;;;;;;33.00;7.70;;;;;;;4.82;100.00;101302.27;104250;1308;22585;-59
2024/02/21 01:42:10;;;;;;;27.70;7.00;;;;;;;4.83;100.00;101299.22;104304;1301;25284;-60
2024/02/21 01:44:37;;;;;;;34.40;7.00;;;;;;;4.85;100.00;101302.35;104302;1310;22698;-59
2024/02/21 01:47:03;;;;;;;32.70;7.40;;;;;;;4.87;100.00;101302.71;106881;1305;22635;-58
2024/02/21 01:49:30;;;;;;;35.30;7.70;;;;;;;4.90;100.00;101297.46;104327;1288;24248;-60
2024/02/21 01:51:56;;;;;;;33.60;7.60;;;;;;;4.94;100.00;101293.77;104242;1310;22753;-59
2024/02/21 01:54:22;;;;;;;25.90;7.00;;;;;;;4.96;100.00;101292.45;104293;1310;22553;-59
2024/02/21 01:56:48;;;;;;;34.50;7.30;;;;;;;4.98;100.00;101293.17;104282;1303;22920;-60
2024/02/21 01:59:16;;;;;;;32.80;6.90;;;;;;;5.02;100.00;101289.30;105978;1302;22640;-58
2024/02/21 02:01:41;;;;;;;28.70;6.60;;;;;;;5.05;100.00;101286.63;104871;1307;22562;-59
2024/02/21 02:04:08;;;;;;;31.10;6.50;;;;;;;5.08;100.00;101285.99;104427;1310;23132;-60
2024/02/21 02:06:34;;;;;;;38.80;7.90;;;;;;;5.09;100.00;101284.48;104313;1305;22583;-59
2024/02/21 02:09:00;;;;;;;31.40;8.60;;;;;;;5.12;100.00;101280.77;104328;1294;24342;-60
2024/02/21 02:11:26;;;;;;;27.80;6.80;;;;;;;5.13;100.00;101281.64;104354;1289;23664;-57
2024/02/21 02:13:51;;;;;;;32.90;7.30;;;;;;;5.14;100.00;101278.25;104260;1310;23944;-60
2024/02/21 02:16:16;;;;;;;34.00;7.50;;;;;;;5.15;100.00;101274.34;104506;1310;22626;-57
2024/02/21 02:18:42;;;;;;;30.80;8.00;;;;;;;5.19;100.00;101274.21;104250;1305;24267;-58
2024/02/21 02:21:21;;;;;;;36.50;8.10;;;;;;;5.21;100.00;101271.33;104417;1304;22644;-58
2024/02/21 02:23:47;;;;;;;32.70;7.90;;;;;;;5.22;100.00;101271.34;104484;1304;22570;-58
2024/02/21 02:26:12;;;;;;;34.50;7.90;;;;;;;5.23;100.00;101265.71;104334;1310;22976;-60
2024/02/21 02:28:38;;;;;;;36.00;7.20;;;;;;;5.23;100.00;101262.47;104335;1305;23196;-59
2024/02/21 02:31:03;;;;;;;27.70;6.70;;;;;;;5.25;100.00;101259.60;104366;1292;25319;-59
2024/02/21 02:33:29;;;;;;;30.60;7.10;;;;;;;5.27;100.00;101256.38;104386;1306;22580;-59
2024/02/21 02:35:54;;;;;;;36.80;7.60;;;;;;;5.26;100.00;101252.95;104467;1310;22781;-59
2024/02/21 02:38:20;;;;;;;27.40;6.60;;;;;;;5.27;100.00;101249.03;105580;1305;22580;-60
2024/02/21 02:40:45;;;;;;;39.00;6.80;;;;;;;5.28;100.00;101245.11;104270;1291;22569;-60
2024/02/21 02:43:11;;;;;;;25.60;6.80;;;;;;;5.29;100.00;101244.63;104265;1304;22562;-59
2024/02/21 02:45:36;;;;;;;36.80;7.90;;;;;;;5.29;100.00;101246.33;104269;1310;24206;-58
2024/02/21 02:48:02;;;;;;;27.30;6.10;;;;;;;5.30;100.00;101245.66;104424;1310;22559;-59
2024/02/21 02:50:28;;;;;;;22.80;7.70;;;;;;;5.32;100.00;101239.88;104359;1288;22550;-59
2024/02/21 02:52:54;;;;;;;34.70;6.90;;;;;;;5.32;100.00;101234.75;104365;1310;24150;-58
2024/02/21 02:55:20;;;;;;;34.50;7.70;;;;;;;5.31;100.00;101230.13;104469;1310;25291;-59
2024/02/21 02:57:46;;;;;;;47.10;8.20;;;;;;;5.33;100.00;101227.75;104514;1310;25497;-58
2024/02/21 03:00:12;;;;;;;34.20;7.40;;;;;;;5.36;100.00;101227.63;104409;1289;22756;-59
2024/02/21 03:02:39;;;;;;;31.30;6.50;;;;;;;5.38;100.00;101220.98;105845;1308;22797;-58
2024/02/21 03:05:15;;;;;;;32.70;6.80;;;;;;;5.37;100.00;101222.34;104402;1310;22584;-60
2024/02/21 03:07:41;;;;;;;27.50;8.00;;;;;;;5.37;100.00;101216.88;106484;1304;22939;-59
2024/02/21 03:10:07;;;;;;;32.10;7.90;;;;;;;5.36;100.00;101214.64;104205;1298;23044;-58
2024/02/21 03:12:33;;;;;;;32.60;7.30;;;;;;;5.37;100.00;101213.45;104403;1291;22872;-59
2024/02/21 03:14:58;;;;;;;34.40;9.00;;;;;;;5.38;100.00;101213.14;104424;1303;24340;-59
2024/02/21 03:17:26;;;;;;;23.80;6.60;;;;;;;5.39;100.00;101210.92;104340;1304;22588;-59
2024/02/21 03:19:53;;;;;;;33.70;7.30;;;;;;;5.43;100.00;101207.21;104055;1307;22815;-58
2024/02/21 03:22:18;;;;;;;29.40;8.20;;;;;;;5.44;100.00;101210.14;104321;1302;22588;-59
2024/02/21 03:24:44;;;;;;;28.30;8.70;;;;;;;5.45;100.00;101209.81;104167;1296;22679;-59
2024/02/21 03:27:10;;;;;;;37.70;9.20;;;;;;;5.45;100.00;101205.36;104257;1295;23742;-60
2024/02/21 03:29:35;;;;;;;29.60;7.50;;;;;;;5.46;100.00;101205.04;104334;1306;22664;-59
2024/02/21 03:32:01;;;;;;;34.30;8.40;;;;;;;5.44;100.00;101201.08;104254;1291;23472;-60
2024/02/21 03:34:26;;;;;;;33.30;7.90;;;;;;;5.47;100.00;101200.61;104366;1305;23253;-60
2024/02/21 03:36:52;;;;;;;31.40;7.90;;;;;;;5.46;100.00;101199.73;104333;1310;24347;-60
2024/02/21 03:39:17;;;;;;;30.40;8.30;;;;;;;5.47;100.00;101196.67;104254;1304;24263;-59
2024/02/21 03:41:43;;;;;;;20.70;7.80;;;;;;;5.48;100.00;101194.48;104295;1291;23013;-59
2024/02/21 03:44:09;;;;;;;33.50;7.20;;;;;;;5.48;100.00;101189.00;104215;1304;22569;-59
2024/02/21 03:46:35;;;;;;;26.40;7.30;;;;;;;5.46;100.00;101182.98;104189;1304;25469;-59
2024/02/21 03:49:00;;;;;;;119.80;48.60;;;;;;;5.47;100.00;101184.87;104294;1303;26027;-59
2024/02/21 03:51:26;;;;;;;28.20;9.30;;;;;;;5.49;100.00;101178.23;104109;1291;22682;-59
2024/02/21 03:53:52;;;;;;;31.60;8.50;;;;;;;5.49;100.00;101174.14;104149;1305;25623;-60
2024/02/21 03:56:17;;;;;;;31.70;7.70;;;;;;;5.48;100.00;101172.23;104188;1305;22603;-60
2024/02/21 03:58:43;;;;;;;33.10;9.30;;;;;;;5.47;100.00;101174.79;104076;1304;23228;-58
2024/02/21 04:01:08;;;;;;;43.20;9.80;;;;;;;5.50;100.00;101174.31;104063;1289;22570;-59
2024/02/21 04:03:34;;;;;;;30.80;9.10;;;;;;;5.51;100.00;101175.70;104154;1293;23982;-57
2024/02/21 04:06:00;;;;;;;32.40;9.60;;;;;;;5.50;100.00;101174.32;103930;1302;24244;-60
2024/02/21 04:08:26;;;;;;;42.50;9.90;;;;;;;5.50;100.00;101175.00;104200;1304;21776;-59
2024/02/21 04:10:51;;;;;;;26.70;9.10;;;;;;;5.51;100.00;101173.48;104298;1307;25556;-60
2024/02/21 04:13:17;;;;;;;38.90;9.40;;;;;;;5.52;100.00;101171.45;104001;1294;25278;-59
2024/02/21 04:15:42;;;;;;;38.40;9.90;;;;;;;5.53;100.00;101163.75;103953;1309;22945;-59
2024/02/21 04:18:08;;;;;;;30.80;9.00;;;;;;;5.53;100.00;101163.92;104263;1294;24407;-59
2024/02/21 04:20:35;;;;;;;38.90;10.40;;;;;;;5.53;100.00;101157.44;104372;1305;22563;-59
2024/02/21 04:23:00;;;;;;;31.80;10.20;;;;;;;5.54;100.00;101154.54;104368;1291;24234;-59
2024/02/21 04:25:26;;;;;;;34.00;9.60;;;;;;;5.56;100.00;101154.23;104447;1310;22577;-59
2024/02/21 04:27:51;;;;;;;28.80;8.60;;;;;;;5.55;100.00;101148.05;104324;1310;22697;-60
2024/02/21 04:30:17;;;;;;;37.50;10.70;;;;;;;5.58;100.00;101145.69;104334;1303;22585;-60
2024/02/21 04:32:42;;;;;;;32.40;8.50;;;;;;;5.57;100.00;101147.05;104265;1291;22633;-58
2024/02/21 04:35:08;;;;;;;34.10;9.00;;;;;;;5.56;100.00;101145.84;104425;1303;25449;-59
2024/02/21 04:37:34;;;;;;;33.80;8.80;;;;;;;5.56;100.00;101147.89;104375;1305;26524;-59
2024/02/21 04:39:59;;;;;;;27.80;9.00;;;;;;;5.56;100.00;101143.28;104369;1304;23264;-58
2024/02/21 04:42:25;;;;;;;31.20;8.10;;;;;;;5.56;100.00;101144.65;104203;1289;22625;-60
2024/02/21 04:44:51;;;;;;;25.00;8.30;;;;;;;5.58;100.00;101138.86;104376;1304;23977;-60
2024/02/21 04:47:16;;;;;;;27.80;7.90;;;;;;;5.59;100.00;101133.75;104422;1304;23139;-59
2024/02/21 04:49:42;;;;;;;37.70;9.20;;;;;;;5.59;100.00;101131.86;104478;1297;22686;-58
2024/02/21 04:52:07;;;;;;;29.60;7.80;;;;;;;5.59;100.00;101128.61;104477;1289;24323;-59
2024/02/21 04:54:35;;;;;;;39.20;9.20;;;;;;;5.58;100.00;101124.49;104274;1291;22658;-60
2024/02/21 04:57:00;;;;;;;29.50;8.20;;;;;;;5.61;100.00;101119.40;104195;1304;24095;-58
2024/02/21 04:59:26;;;;;;;29.60;7.90;;;;;;;5.59;100.00;101118.01;104260;1301;24206;-59
2024/02/21 05:01:52;;;;;;;29.00;8.00;;;;;;;5.57;100.00;101118.84;104339;1302;25490;-59
2024/02/21 05:04:17;;;;;;;21.60;7.40;;;;;;;5.58;100.00;101115.27;105468;1288;25281;-59
2024/02/21 05:06:43;;;;;;;33.90;7.50;;;;;;;5.60;100.00;101113.92;104213;1310;25445;-61
2024/02/21 05:09:09;;;;;;;37.80;8.30;;;;;;;5.59;100.00;101110.14;104292;1305;24365;-60
2024/02/21 05:11:35;;;;;;;31.80;8.90;;;;;;;5.57;100.00;101104.81;104697;1295;25326;-58
2024/02/21 05:14:02;;;;;;;25.80;7.80;;;;;;;5.58;100.00;101101.06;104305;1291;22752;-58
2024/02/21 05:16:28;;;;;;;;;;;;;;;5.57;100.00;101101.23;104367;1304;22559;-59
2024/02/21 05:18:53;;;;;;;26.40;8.40;;;;;;;5.58;100.00;101099.70;104277;1304;25468;-59
2024/02/21 05:21:19;;;;;;;26.10;8.20;;;;;;;5.58;100.00;101098.15;104246;1310;25468;-58
2024/02/21 05:23:44;;;;;;;34.40;8.40;;;;;;;5.57;100.00;101098.48;104298;1294;22593;-58
2024/02/21 05:26:10;;;;;;;31.30;8.60;;;;;;;5.57;100.00;101090.29;104334;1310;25465;-59
2024/02/21 05:28:36;;;;;;;29.60;8.30;;;;;;;5.59;100.00;101089.61;104352;1304;25326;-59
2024/02/21 05:31:01;;;;;;;34.40;8.30;;;;;;;5.56;100.00;101080.19;104395;1305;22529;-59
2024/02/21 05:33:26;;;;;;;26.10;8.10;;;;;;;5.54;100.00;101076.58;104439;1302;22736;-58
2024/02/21 05:35:52;;;;;;;31.80;9.00;;;;;;;5.56;100.00;101072.83;104371;1302;22702;-60
2024/02/21 05:38:18;;;;;;;48.70;9.20;;;;;;;5.54;100.00;101070.58;105977;1304;22436;-60
2024/02/21 05:40:47;;;;;;;34.70;10.40;;;;;;;5.56;100.00;101069.75;104558;1304;22598;-60
2024/02/21 05:43:13;;;;;;;30.60;9.30;;;;;;;5.56;100.00;101069.23;104050;1289;24782;-59
2024/02/21 05:45:39;;;;;;;34.80;8.90;;;;;;;5.56;100.00;101068.04;104319;1302;23386;-60
2024/02/21 05:48:05;;;;;;;45.40;11.40;;;;;;;5.57;100.00;101066.52;103946;1304;307483;-60
2024/02/21 05:50:30;;;;;;;29.60;10.20;;;;;;;5.56;100.00;101068.89;104448;1304;24040;-57
2024/02/21 05:52:56;;;;;;;32.60;9.60;;;;;;;5.56;100.00;101069.91;104546;1310;22559;-60
2024/02/21 05:55:22;;;;;;;29.60;10.20;;;;;;;5.58;100.00;101068.75;104531;1291;22572;-60
2024/02/21 05:57:48;;;;;;;32.00;11.20;;;;;;;5.58;100.00;101072.67;104463;1295;23497;-60
2024/02/21 06:00:15;;;;;;;37.70;10.00;;;;;;;5.58;100.00;101069.95;105239;1295;22591;-58
2024/02/21 06:02:42;;;;;;;35.70;11.50;;;;;;;5.59;100.00;101066.02;106285;1303;22602;-57
2024/02/21 06:05:08;;;;;;;33.70;11.00;;;;;;;5.59;100.00;101064.48;106630;1291;22581;-59
2024/02/21 06:07:34;;;;;;;;;;;;;;;5.58;100.00;101057.46;107690;1304;22536;-59
2024/02/21 06:10:02;;;;;;;34.70;10.70;;;;;;;5.62;100.00;101056.14;107500;1304;23952;-58
2024/02/21 06:12:27;;;;;;;33.20;11.00;;;;;;;5.62;100.00;101054.27;106129;1305;22599;-57
2024/02/21 06:14:53;;;;;;;36.10;10.30;;;;;;;5.65;100.00;101053.77;105134;1291;23956;-57
2024/02/21 06:17:18;;;;;;;34.20;11.10;;;;;;;5.65;100.00;101055.48;104090;1307;22585;-56
2024/02/21 06:19:44;;;;;;;31.50;9.90;;;;;;;5.66;100.00;101056.36;104193;1304;23462;-56
2024/02/21 06:22:10;;;;;;;27.70;10.10;;;;;;;5.67;100.00;101054.64;104076;1295;22582;-56
2024/02/21 06:24:36;;;;;;;39.00;10.70;;;;;;;5.68;100.00;101057.23;103752;1291;22562;-57
2024/02/21 06:27:03;;;;;;;40.50;10.00;;;;;;;5.69;100.00;101052.80;104047;1304;22719;-55
2024/02/21 06:29:29;;;;;;;33.20;10.10;;;;;;;5.69;100.00;101049.02;107004;1307;22317;-56
2024/02/21 06:31:54;;;;;;;30.70;10.00;;;;;;;5.71;100.00;101048.17;106992;1305;23052;-58
2024/02/21 06:34:20;;;;;;;39.50;9.90;;;;;;;5.72;100.00;101044.09;107269;1289;22329;-58
2024/02/21 06:36:45;;;;;;;33.10;10.90;;;;;;;5.72;100.00;101040.83;107365;1302;22310;-56
2024/02/21 06:39:11;;;;;;;32.90;11.20;;;;;;;5.76;100.00;101037.95;107278;1305;22970;-57
2024/02/21 06:41:37;;;;;;;28.30;9.60;;;;;;;5.76;100.00;101039.66;107334;1304;22459;-55
2024/02/21 06:44:03;;;;;;;34.30;10.80;;;;;;;5.79;100.00;101040.90;107107;1304;22338;-56
2024/02/21 06:46:29;;;;;;;30.20;10.40;;;;;;;5.80;100.00;101039.02;107273;1288;22363;-58
2024/02/21 06:48:58;;;;;;;32.40;11.70;;;;;;;5.81;100.00;101035.10;107106;1304;22436;-57
2024/02/21 06:51:26;;;;;;;24.90;10.00;;;;;;;5.80;100.00;101030.81;107170;1304;22213;-55
2024/02/21 06:53:52;;;;;;;32.80;11.60;;;;;;;5.81;100.00;101026.38;107268;1304;22251;-58
2024/02/21 06:56:18;;;;;;;34.90;10.50;;;;;;;5.84;100.00;101022.13;107297;1287;22417;-57
2024/02/21 06:58:43;;;;;;;34.30;10.50;;;;;;;5.84;100.00;101023.67;107319;1310;22350;-57
2024/02/21 07:01:10;;;;;;;28.60;10.40;;;;;;;5.83;100.00;101025.02;107375;1304;23651;-57
2024/02/21 07:03:36;;;;;;;36.90;9.90;;;;;;;5.88;100.00;101019.63;107098;1310;22440;-56
2024/02/21 07:06:02;;;;;;;34.90;9.10;;;;;;;5.93;100.00;101020.88;107215;1292;22397;-58
2024/02/21 07:08:28;;;;;;;27.00;9.30;;;;;;;5.92;100.00;101018.30;107356;1287;22561;-58
2024/02/21 07:10:53;;;;;;;40.60;10.90;;;;;;;5.92;100.00;101013.52;107448;1298;22219;-58
2024/02/21 07:13:19;;;;;;;29.40;9.60;;;;;;;5.93;100.00;101009.59;107299;1303;23312;-58
2024/02/21 07:15:44;;;;;;;26.90;10.80;;;;;;;5.93;100.00;101010.45;107317;1291;22387;-58
2024/02/21 07:18:10;;;;;;;27.70;9.60;;;;;;;5.94;100.00;101006.35;107259;1295;22239;-56
2024/02/21 07:20:38;;;;;;;37.30;9.80;;;;;;;5.96;100.00;101001.57;107108;1309;227755;-57
2024/02/21 07:23:04;;;;;;;33.40;10.10;;;;;;;5.97;100.00;101003.64;107240;1309;22388;-56
2024/02/21 07:25:29;;;;;;;30.30;8.60;;;;;;;5.97;100.00;100998.85;107283;1288;22304;-57
2024/02/21 07:27:55;;;;;;;30.70;9.80;;;;;;;5.99;100.00;100996.98;107311;1301;22358;-56
2024/02/21 07:30:21;;;;;;;20.60;8.00;;;;;;;5.99;100.00;100996.64;107287;1304;22294;-54
2024/02/21 07:32:50;;;;;;;30.40;9.30;;;;;;;6.03;100.00;100994.11;107246;1301;22768;-56
2024/02/21 07:35:15;;;;;;;24.90;9.60;;;;;;;6.01;100.00;100990.84;107285;1294;22272;-55
2024/02/21 07:37:41;;;;;;;29.60;9.00;;;;;;;6.01;100.00;100998.53;107279;1288;22766;-55
2024/02/21 07:40:12;;;;;;;38.60;10.40;;;;;;;6.03;100.00;101009.85;107342;1310;22424;-55
2024/02/21 07:42:38;;;;;;;33.10;15.40;;;;;;;6.03;100.00;101008.66;107321;1298;22993;-58
2024/02/21 07:45:04;;;;;;;35.90;7.70;;;;;;;6.07;100.00;101005.27;107282;1302;22330;-56
2024/02/21 07:47:29;;;;;;;25.30;8.90;;;;;;;6.09;100.00;101001.17;107286;1291;22744;-55
2024/02/21 07:49:55;;;;;;;19.40;7.10;;;;;;;6.15;100.00;101004.65;107193;1310;169526;-55
2024/02/21 07:52:20;;;;;;;24.20;7.90;;;;;;;6.20;100.00;101003.15;107335;1304;22232;-55
2024/02/21 07:54:46;;;;;;;26.80;7.90;;;;;;;6.25;100.00;101010.52;107319;1302;22397;-56
2024/02/21 07:57:11;;;;;;;24.50;7.80;;;;;;;6.30;100.00;101016.73;107252;1302;22293;-56
2024/02/21 07:59:37;;;;;;;23.00;8.30;;;;;;;6.33;100.00;101014.52;107263;1302;22392;-57
2024/02/21 08:02:06;;;;;;;21.90;7.10;;;;;;;6.35;100.00;101011.11;107253;1304;22268;-56
2024/02/21 08:04:32;;;;;;;20.80;7.00;;;;;;;6.39;100.00;101004.80;103916;1289;23838;-57
2024/02/21 08:07:01;;;;;;;24.20;8.00;;;;;;;6.44;100.00;101006.90;103867;1291;22550;-56
2024/02/21 08:09:26;;;;;;;20.60;8.40;;;;;;;6.49;100.00;101010.88;103916;1289;22622;-53
2024/02/21 08:11:52;;;;;;;19.50;6.70;;;;;;;6.50;100.00;101008.48;103942;1302;25212;-55
2024/02/21 08:14:18;;;;;;;37.10;9.30;;;;;;;6.53;100.00;101000.30;103781;1304;25447;-54
2024/02/21 08:16:43;;;;;;;23.20;7.40;;;;;;;6.55;100.00;100992.09;103870;1295;24246;-55
2024/02/21 08:19:10;;;;;;;22.10;7.70;;;;;;;6.56;100.00;100990.38;103935;1310;26278;-55
2024/02/21 08:21:35;;;;;;;29.30;7.90;;;;;;;6.60;100.00;100992.11;103694;1307;22677;-54
2024/02/21 08:24:01;;;;;;;21.70;8.10;;;;;;;6.57;100.00;100986.11;103969;1295;24288;-54
2024/02/21 08:26:30;;;;;;;30.00;9.40;;;;;;;6.57;100.00;100982.16;103856;1286;23220;-55
2024/02/21 08:28:58;;;;;;;24.90;10.60;;;;;;;6.55;100.00;100979.41;105630;1310;23999;-53
2024/02/21 08:31:30;;;;;;;23.30;7.80;;;;;;;6.54;100.00;100984.88;103960;1310;22561;-54
2024/02/21 08:34:03;;;;;;;20.10;7.40;;;;;;;6.51;100.00;100979.38;104993;1301;22696;-56
2024/02/21 08:36:38;;;;;;;23.40;7.70;;;;;;;6.51;100.00;100974.59;103930;1289;22688;-55
2024/02/21 08:39:04;;;;;;;27.20;8.20;;;;;;;6.51;100.00;100969.61;103615;1304;25312;-56
2024/02/21 08:41:37;;;;;;;22.20;7.80;;;;;;;6.51;100.00;100969.61;103906;1304;22676;-55
2024/02/21 08:44:03;;;;;;;23.00;7.80;;;;;;;6.50;100.00;100965.34;103869;1301;22618;-54
2024/02/21 08:46:28;;;;;;;24.20;13.00;;;;;;;6.51;100.00;100972.52;103814;1291;22702;-55
2024/02/21 08:48:54;;;;;;;24.90;8.40;;;;;;;6.52;100.00;100963.27;103644;1294;22963;-55
2024/02/21 08:51:20;;;;;;;20.70;7.90;;;;;;;6.51;100.00;100961.39;103913;1307;25234;-55
2024/02/21 08:53:46;;;;;;;24.10;8.60;;;;;;;6.51;100.00;100952.84;103911;1295;25405;-55
2024/02/21 08:56:12;;;;;;;26.70;8.80;;;;;;;6.51;100.00;100952.15;103889;1309;22695;-53
2024/02/21 08:58:40;;;;;;;20.00;8.30;;;;;;;6.54;100.00;100951.82;103693;1294;22559;-54
2024/02/21 09:01:09;;;;;;;25.90;8.80;;;;;;;6.56;100.00;100954.75;103935;1310;22558;-54
2024/02/21 09:03:36;;;;;;;37.30;11.20;;;;;;;6.56;100.00;100950.64;107315;1305;22366;-53
2024/02/21 09:06:01;;;;;;;32.10;13.20;;;;;;;6.56;100.00;100950.13;107311;1305;23109;-57
2024/02/21 09:08:27;;;;;;;26.70;8.50;;;;;;;6.59;100.00;100951.85;104626;1291;23851;-56
2024/02/21 09:10:53;;;;;;;28.20;11.10;;;;;;;6.60;100.00;100950.48;103998;1295;22569;-55
2024/02/21 09:13:19;;;;;;;24.40;10.00;;;;;;;6.60;100.00;100950.66;104030;1288;25910;-54
2024/02/21 09:15:44;;;;;;;25.80;7.90;;;;;;;6.63;100.00;100945.88;103776;1304;25765;-54
2024/02/21 09:18:10;;;;;;;28.00;9.70;;;;;;;6.65;100.00;100944.70;103680;1294;25378;-56
2024/02/21 09:20:36;;;;;;;22.90;10.60;;;;;;;6.66;100.00;100944.35;104024;1307;22600;-54
2024/02/21 09:23:01;;;;;;;22.30;9.40;;;;;;;6.65;100.00;100951.03;103768;1304;25371;-53
2024/02/21 09:25:27;;;;;;;30.70;9.20;;;;;;;6.62;100.00;100945.20;103893;1297;23144;-54
2024/02/21 09:27:54;;;;;;;23.70;9.80;;;;;;;6.60;100.00;100948.94;103938;1286;22788;-54
2024/02/21 09:30:20;;;;;;;24.30;9.90;;;;;;;6.60;100.00;100941.75;104036;1307;25465;-55
2024/02/21 09:32:45;;;;;;;83.40;35.40;;;;;;;6.59;100.00;100942.44;103841;1305;22587;-54
2024/02/21 09:35:12;;;;;;;23.10;9.50;;;;;;;6.59;100.00;100943.64;103970;1288;22572;-54
2024/02/21 09:37:37;;;;;;;;;;;;;;;6.61;100.00;100939.88;103957;1304;22543;-55
2024/02/21 09:40:04;;;;;;;30.40;10.40;;;;;;;6.60;100.00;100934.55;103864;1290;22584;-55
2024/02/21 09:42:41;;;;;;;25.50;11.00;;;;;;;6.62;100.00;100930.80;107115;1310;22412;-56
2024/02/21 09:45:22;;;;;;;24.10;9.00;;;;;;;6.65;100.00;100935.95;107189;1303;22776;-54
2024/02/21 09:48:13;;;;;;;21.90;9.50;;;;;;;6.70;100.00;100945.58;107291;1304;22345;-57
2024/02/21 09:50:43;;;;;;;21.20;10.30;;;;;;;6.72;100.00;100946.45;107290;1291;23040;-55
2024/02/21 09:53:15;;;;;;;24.30;10.20;;;;;;;6.74;100.00;100944.91;107436;1305;23147;-55
2024/02/21 09:55:41;;;;;;;23.40;10.10;;;;;;;6.75;100.00;100946.97;107158;1298;22381;-57
2024/02/21 09:58:08;;;;;;;21.20;10.20;;;;;;;6.75;100.00;100943.20;107122;1310;23061;-57
2024/02/21 10:00:43;;;;;;;26.10;9.60;;;;;;;6.74;100.00;100944.05;107252;1291;22380;-56
2024/02/21 10:03:08;;;;;;;24.10;10.50;;;;;;;6.73;100.00;100942.52;107150;1301;22880;-56
2024/02/21 10:05:38;;;;;;;23.10;10.50;;;;;;;6.72;100.00;100945.07;107232;1302;22374;-52
2024/02/21 10:08:04;;;;;;;26.30;10.30;;;;;;;6.74;100.00;100944.91;107121;1307;22432;-56
2024/02/21 10:10:30;;;;;;;29.90;10.80;;;;;;;6.75;100.00;100943.37;107285;1288;23054;-55
2024/02/21 10:12:57;;;;;;;27.00;10.10;;;;;;;6.76;100.00;100938.74;107304;1304;23051;-56
2024/02/21 10:15:27;;;;;;;30.80;10.00;;;;;;;6.82;100.00;100932.58;107109;1308;22798;-56
2024/02/21 10:18:00;;;;;;;264.80;73.00;;;;;;;6.90;100.00;100925.25;107402;1305;22243;-58
2024/02/21 10:20:26;;;;;;;28.00;10.50;;;;;;;6.98;100.00;100927.16;107339;1291;23102;-57
2024/02/21 10:23:03;;;;;;;36.10;10.50;;;;;;;7.00;100.00;100927.17;107350;1304;23248;-58
2024/02/21 10:25:28;;;;;;;;;;;;;;;7.06;100.00;100924.80;107349;1304;22412;-56
2024/02/21 10:27:54;;;;;;;28.60;10.00;;;;;;;7.09;100.00;100924.46;107146;1304;284409;-55
2024/02/21 10:30:20;;;;;;;25.40;10.80;;;;;;;7.10;100.00;100917.27;107254;1291;22497;-56
2024/02/21 10:32:53;;;;;;;29.50;11.30;;;;;;;7.10;100.00;100909.90;107287;1304;22248;-55
2024/02/21 10:35:32;;;;;;;23.20;10.10;;;;;;;7.11;100.00;100907.67;107342;1304;22601;-56
2024/02/21 10:37:59;;;;;;;18.20;8.70;;;;;;;7.14;100.00;100904.27;106958;1304;22235;-55
2024/02/21 10:40:31;;;;;;;23.70;9.50;;;;;;;7.16;100.00;100902.02;107273;1288;22360;-52
2024/02/21 10:42:59;;;;;;;24.80;10.20;;;;;;;7.18;100.00;100902.04;107056;1304;22400;-55
2024/02/21 10:45:30;;;;;;;26.60;10.30;;;;;;;7.22;100.00;100902.05;105431;1304;23091;-55
2024/02/21 10:48:11;;;;;;;23.90;9.60;;;;;;;7.27;100.00;100904.79;107274;1301;22263;-56
2024/02/21 10:50:53;;;;;;;19.70;9.20;;;;;;;7.31;100.00;100900.66;107122;1288;22453;-57
2024/02/21 10:53:43;;;;;;;84.30;57.10;;;;;;;7.35;100.00;100896.38;104883;1303;22607;-54
2024/02/21 10:56:24;;;;;;;15.80;8.60;;;;;;;7.37;100.00;100888.33;104186;1304;22688;-56
2024/02/21 10:58:53;;;;;;;19.30;9.00;;;;;;;7.38;100.00;100885.59;104141;1310;24118;-55
2024/02/21 11:01:19;;;;;;;18.20;9.20;;;;;;;7.37;100.00;100880.27;103861;1294;24301;-56
2024/02/21 11:03:46;;;;;;;22.50;9.90;;;;;;;7.29;100.00;100875.80;104209;1305;26571;-55
2024/02/21 11:06:13;;;;;;;26.10;9.50;;;;;;;7.25;100.00;100871.02;107108;1310;23353;-55
2024/02/21 11:08:39;;;;;;;;;;;;;;;7.23;100.00;100866.73;107020;1304;23341;-56